Aérodrome :
LOGIN :

S'inscrire | Disclaimer

   EN    FR    IT 

 










Légende :    VFR   VFR Marginal   IFR   IFR Intensif   IFR Très Intensif
Visi : 
Plafond : 
>= 8 km
>= 3000ft
5 à 8 km
1000 à 3000 ft
1500m à 5 km
500 à 1000 ft
800 à 1500m
200 à 500 ft
< 800m
< 200 ft
Symboles :   Orages  Brouillard  Fortes neiges  Fortes précipitations  Vent > 20 kt
SIGMETs :   Divers  Orages  Givrage  Turbulence  Onde Orograph.  Cendres Volcan.







- Altitude de l'aérodrome : 776 ft
- Code IATA : RMS


ETAR - Ramstein Air Base

DERNIER METAR :
  • 211656Z 10003KT 9999 SCT180 14/11 A3010 RMK AO2A SLP200 T01430105

METARs EXPIRÉS :
  • 211556Z 14003KT 9999 SCT180 18/07 A3010 RMK AO2A SLP198 T01800071
  • 211456Z 18005KT 9999 SCT180 19/06 A3010 RMK AO2A DZB20E26 SLP198 P0000 60000 T01890060 57010

TAF TAF ETAR
Valide du 21 à 10h jusqu'au 22 à 16h UTC


211002Z 2110/2216 VRB06KT 9999 FEW035 QNH3011INS
BECMG 2201/2202 VRB06KT 6000 BR FEW080 QNH3012INS
BECMG 2206/2207 VRB06KT 9999 NSW FEW070 QNH3011INS TX17/2115Z TN07/2203Z
Pas de NOTAMs connus pour ce terrain.



MET'MAP, la Météo Aéronautique d'un coup d'oeil ! - Copyright ORBIFLY Décembre 2007 - Disclaimer

ORBIFLY MET'MAP TEAM :

Programmation & Développement : Alexandra Zaïnal
Conception & Développement : Baudouin d'Aumeries
Co-Programmation & Développement : Marc-Olivier Méhu
Soutien technique & logistique : Manuel Goepfert

Contact : metmap@orbifly.com




SOURCES & CREDITS :

   NOAA